Temp     Hi    Low   Out    Dew  Wind  Wind   Wind    Hi    Hi   Wind   Heat    THW                Rain    Heat    Cool    In     In    In     In     In   In Air   Temp  Wind  Wind    ISS   Arc.
  Date    Time     Out   Temp   Temp   Hum    Pt. Speed   Dir    Run Speed   Dir  Chill  Index  Index   Bar    Rain  Rate    D-D     D-D    Temp   Hum    Dew   Heat    EMC Density    2nd  Samp   Tx   Recept  Int.
----------------------------------------------------------------------------------------------------------------------------------------------------------------------------------------------------------------------
18/06/19 12:10a    8.4    8.4    8.4    86    6.2   0.0   ---   0.00   0.0   ---    8.4    8.4    8.4  1019.6  0.00   0.0   0.069   0.000   16.3    47    5.0   15.1   8.92 1.2172    41.7     0    2      0.0   10 
18/06/19 12:20a    8.3    8.4    8.3    87    6.2   0.0   ---   0.00   0.0   ---    8.3    8.3    8.3  1019.2  0.00   0.0   0.070   0.000   16.3    47    5.0   15.1   8.92 1.2167    41.7     0    2      0.0   10 
18/06/19 12:30a    8.2    8.3    8.2    87    6.2   0.0   ---   0.00   0.0   ---    8.2    8.3    8.3  1019.2  0.00   0.0   0.070   0.000   16.2    47    4.9   15.0   8.93 1.2172    41.7     0    2      0.0   10 
18/06/19 12:40a    8.1    8.2    8.1    87    6.1   0.0   ---   0.00   0.0   ---    8.1    8.2    8.2  1019.2  0.00   0.0   0.071   0.000   16.2    47    4.8   14.9   8.93 1.2175    41.7     0    2      0.0   10 
18/06/19 12:50a    8.1    8.1    8.1    87    6.0   0.0   ---   0.00   0.0   ---    8.1    8.1    8.1  1019.1  0.00   0.0   0.071   0.000   16.1    48    5.0   14.9   9.11 1.2177    41.7     0    2      0.0   10 
18/06/19  1:00a    7.9    8.1    7.9    87    5.9   0.0   ---   0.00   0.0   ---    7.9    8.0    8.0  1018.8  0.00   0.0   0.072   0.000   16.1    48    5.0   14.9   9.11 1.2173    41.7     0    2      0.0   10 
18/06/19  1:10a    7.9    7.9    7.9    87    5.9   0.0   ---   0.00   0.0   ---    7.9    7.9    7.9  1018.8  0.00   0.0   0.073   0.000   16.0    48    5.0   14.8   9.12 1.2176    41.7     0    2      0.0   10 
18/06/19  1:20a    7.7    7.9    7.7    87    5.7   0.0   ---   0.00   0.0   ---    7.7    7.7    7.7  1018.4  0.00   0.0   0.074   0.000   15.9    48    4.9   14.7   9.13 1.2176    41.7     0    2      0.0   10 
18/06/19  1:30a    7.5    7.7    7.5    87    5.5   0.0   ---   0.00   0.0   ---    7.5    7.5    7.5  1018.2  0.00   0.0   0.075   0.000   15.8    48    4.8   14.6   9.13 1.2180    41.7     0    2      0.0   10 
18/06/19  1:40a    7.2    7.5    7.2    87    5.1   0.0   ---   0.00   0.0   ---    7.2    7.2    7.2  1018.2  0.00   0.0   0.078   0.000   15.7    48    4.7   14.6   9.14 1.2182    41.7     0    2      0.0   10 
18/06/19  1:50a    7.0    7.2    7.0    88    5.1   0.0   ---   0.00   0.0   ---    7.0    7.0    7.0  1018.3  0.00   0.0   0.079   0.000   15.6    48    4.6   14.4   9.15 1.2189    41.7     0    2      0.0   10 
18/06/19  2:00a    6.8    7.0    6.8    88    4.9   0.0   ---   0.00   0.0   ---    6.8    6.8    6.8  1018.5  0.00   0.0   0.080   0.000   15.6    48    4.6   14.4   9.15 1.2194    41.7     0    2      0.0   10 
18/06/19  2:10a    6.7    6.8    6.7    89    5.0   0.0   ---   0.00   0.0   ---    6.7    6.7    6.7  1018.5  0.00   0.0   0.081   0.000   15.4    48    4.5   14.3   9.15 1.2200    41.7     0    2      0.0   10 
18/06/19  2:20a    6.4    6.6    6.4    89    4.8   0.0   ---   0.00   0.0   ---    6.4    6.4    6.4  1018.6  0.00   0.0   0.083   0.000   15.4    48    4.4   14.2   9.15 1.2203    41.7     0    2      0.0   10 
18/06/19  2:30a    6.3    6.4    6.3    89    4.6   0.0   ---   0.00   0.0   ---    6.3    6.3    6.3  1018.6  0.00   0.0   0.084   0.000   15.3    48    4.3   14.1   9.15 1.2209    41.7     0    2      0.0   10 
18/06/19  2:40a    5.8    6.3    5.8    89    4.1   0.0   ---   0.00   0.0   ---    5.8    5.8    5.8  1018.6  0.00   0.0   0.087   0.000   15.2    48    4.3   14.1   9.15 1.2211    41.7     0    2      0.0   10 
18/06/19  2:50a    5.6    5.8    5.6    90    4.0   0.0   ---   0.00   0.0   ---    5.6    5.6    5.6  1018.5  0.00   0.0   0.089   0.000   15.1    48    4.2   13.9   9.15 1.2215    41.7     0    2      0.0   10 
18/06/19  3:00a    5.7    5.7    5.5    91    4.3   0.0   ---   0.00   0.0   ---    5.7    5.7    5.7  1018.2  0.00   0.0   0.088   0.000   15.1    48    4.1   13.9   9.15 1.2214    41.7     0    2      0.0   10 
18/06/19  3:10a    5.8    5.8    5.7    91    4.4   0.0   ---   0.00   0.0   ---    5.8    5.8    5.8  1018.2  0.00   0.0   0.087   0.000   14.9    48    4.0   13.8   9.15 1.2220    41.7     0    2      0.0   10 
18/06/19  3:20a    5.8    5.8    5.8    92    4.6   0.0   ---   0.00   0.0   ---    5.8    5.8    5.8  1018.0  0.00   0.0   0.087   0.000   14.9    49    4.3   13.7   9.35 1.2218    41.7     0    2      0.0   10 
18/06/19  3:30a    5.8    5.8    5.8    92    4.6   0.0   ---   0.00   0.0   ---    5.8    5.8    5.8  1018.1  0.00   0.0   0.087   0.000   14.8    49    4.2   13.6   9.35 1.2225    41.7     0    2      0.0   10 
18/06/19  3:40a    5.6    5.8    5.6    92    4.4   0.0   ---   0.00   0.0   ---    5.6    5.6    5.6  1018.1  0.00   0.0   0.089   0.000   14.7    49    4.1   13.6   9.35 1.2228    41.7     0    2      0.0   10 
18/06/19  3:50a    5.4    5.5    5.4    93    4.3   0.0   ---   0.00   0.0   ---    5.4    5.4    5.4  1018.1  0.00   0.0   0.090   0.000   14.7    49    4.1   13.6   9.35 1.2228    41.7     0    2      0.0   10 
18/06/19  4:00a    5.2    5.4    5.2    93    4.1   0.0   ---   0.00   0.0   ---    5.2    5.2    5.2  1018.3  0.00   0.0   0.091   0.000   14.6    49    4.0   13.4   9.35 1.2235    41.7     0    2      0.0   10 
18/06/19  4:10a    4.8    5.2    4.8    92    3.6   0.0   ---   0.00   0.0   ---    4.8    4.8    4.8  1018.3  0.00   0.0   0.094   0.000   14.6    49    4.0   13.4   9.35 1.2238    41.7     0    2      0.0   10 
18/06/19  4:20a    4.0    4.6    4.0    93    3.0   0.0   ---   0.00   0.0   ---    4.0    4.0    4.0  1018.4  0.00   0.0   0.100   0.000   14.4    49    3.9   13.3   9.35 1.2245    41.7     0    2      0.0   10 
18/06/19  4:30a    4.2    4.2    4.0    94    3.3   0.0   ---   0.00   0.0   ---    4.2    4.2    4.2  1018.3  0.00   0.0   0.098   0.000   14.3    49    3.8   13.2   9.35 1.2249    41.7     0    2      0.0   10 
18/06/19  4:40a    4.8    4.8    4.3    95    4.1   0.0   ---   0.00   0.0   ---    4.8    4.9    4.9  1018.3  0.00   0.0   0.094   0.000   14.3    49    3.7   13.2   9.35 1.2252    41.7     0    2      0.0   10 
18/06/19  4:50a    5.1    5.1    4.9    95    4.4   0.0   ---   0.00   0.0   ---    5.1    5.2    5.2  1018.3  0.00   0.0   0.092   0.000   14.2    49    3.6   13.1   9.35 1.2257    41.7     0    2      0.0   10 
18/06/19  5:00a    5.2    5.2    5.0    95    4.4   0.0   ---   0.00   0.0   ---    5.2    5.2    5.2  1018.3  0.00   0.0   0.091   0.000   14.2    49    3.6   13.1   9.35 1.2257    41.7     0    2      0.0   10 
18/06/19  5:10a    4.9    5.2    4.9    95    4.2   0.0   ---   0.00   0.0   ---    4.9    5.0    5.0  1018.3  0.00   0.0   0.093   0.000   14.1    49    3.5   13.0   9.35 1.2259    41.7     0    2      0.0   10 
18/06/19  5:20a    4.8    4.9    4.8    95    4.0   0.0   ---   0.00   0.0   ---    4.8    4.8    4.8  1018.3  0.00   0.0   0.094   0.000   14.0    49    3.4   12.9   9.35 1.2266    41.7     0    2      0.0   10 
18/06/19  5:30a    5.1    5.1    4.8    96    4.5   0.0   ---   0.00   0.0   ---    5.1    5.2    5.2  1018.3  0.00   0.0   0.092   0.000   14.0    49    3.4   12.9   9.35 1.2265    41.7     0    2      0.0   10 
18/06/19  5:40a    4.6    5.1    4.6    94    3.7   0.0   ---   0.00   0.0   ---    4.6    4.6    4.6  1018.3  0.00   0.0   0.096   0.000   13.9    49    3.4   12.8   9.35 1.2268    41.7     0    2      0.0   10 
18/06/19  5:50a    4.7    4.7    4.6    96    4.1   0.0   ---   0.00   0.0   ---    4.7    4.7    4.7  1018.4  0.00   0.0   0.095   0.000   13.8    49    3.3   12.7   9.35 1.2275    41.7     0    2      0.0   10 
18/06/19  6:00a    4.3    4.6    4.3    95    3.5   0.0   ---   0.00   0.0   ---    4.3    4.3    4.3  1018.2  0.00   0.0   0.098   0.000   13.8    49    3.3   12.7   9.35 1.2273    41.7     0    2      0.0   10 
18/06/19  6:10a    4.0    4.2    4.0    95    3.3   0.0   ---   0.00   0.0   ---    4.0    4.0    4.0  1018.2  0.00   0.0   0.100   0.000   13.8    49    3.2   12.7   9.35 1.2275    41.7     0    2      0.0   10 
18/06/19  6:20a    3.6    3.9    3.6    95    2.8   0.0   ---   0.00   0.0   ---    3.6    3.6    3.6  1018.6  0.00   0.0   0.103   0.000   13.7    49    3.1   12.6   9.35 1.2285    41.7     0    2      0.0   10 
18/06/19  6:30a    3.3    3.6    3.3    95    2.6   0.0   ---   0.00   0.0   ---    3.3    3.3    3.3  1018.9  0.00   0.0   0.104   0.000   13.6    49    3.1   12.5   9.35 1.2291    41.7     0    2      0.0   10 
18/06/19  6:40a    3.3    3.3    3.3    96    2.7   0.0   ---   0.00   0.0   ---    3.3    3.3    3.3  1018.9  0.00   0.0   0.105   0.000   13.6    49    3.1   12.5   9.35 1.2291    41.7     0    2      0.0   10 
18/06/19  6:50a    3.3    3.3    3.3    96    2.7   0.0   ---   0.00   0.0   ---    3.3    3.3    3.3  1018.9  0.00   0.0   0.105   0.000   13.7    50    3.4   12.6   9.52 1.2287    41.7     0    2      0.0   10 
18/06/19  7:00a    3.3    3.3    3.3    96    2.8   0.0   ---   0.00   0.0   ---    3.3    3.3    3.3  1019.1  0.00   0.0   0.104   0.000   13.8    50    3.5   12.7   9.51 1.2284    41.7     0    2      0.0   10 
18/06/19  7:10a    3.0    3.3    3.0    96    2.4   0.0   ---   0.00   0.0   ---    3.0    3.0    3.0  1019.1  0.00   0.0   0.106   0.000   13.9    51    4.0   12.9   9.65 1.2274    41.7     0    2      0.0   10 
18/06/19  7:20a    2.9    2.9    2.9    96    2.4   0.0   ---   0.00   0.0   ---    2.9    2.9    2.9  1019.2  0.00   0.0   0.107   0.000   14.0    51    4.0   12.9   9.65 1.2272    41.7     0    2      0.0   10 
18/06/19  7:30a    3.6    3.6    3.2    97    3.1   0.0   ---   0.00   0.0   ---    3.6    3.6    3.6  1019.2  0.00   0.0   0.103   0.000   14.3    52    4.5   13.3   9.80 1.2256    41.7     0    2      0.0   10 
18/06/19  7:40a    3.9    3.9    3.7    97    3.5   0.0   ---   0.00   0.0   ---    3.9    3.9    3.9  1019.2  0.00   0.0   0.100   0.000   14.3    52    4.6   13.3   9.79 1.2254    41.7     0    2      0.0   10 
18/06/19  7:50a    4.1    4.1    3.9    98    3.8   0.0   ---   0.00   0.0   ---    4.1    4.2    4.2  1019.0  0.00   0.0   0.099   0.000   14.6    52    4.8   13.6   9.79 1.2240    41.7     0    2      0.0   10 
18/06/19  8:00a    4.1    4.1    4.1    97    3.7   0.0   ---   0.00   0.0   ---    4.1    4.2    4.2  1019.1  0.00   0.0   0.099   0.000   14.9    51    4.8   13.8   9.65 1.2228    41.7     0    2      0.0   10 
18/06/19  8:10a    4.3    4.3    4.2    97    3.8   0.0   ---   0.00   0.0   ---    4.3    4.3    4.3  1019.1  0.00   0.0   0.098   0.000   15.2    50    4.9   14.1   9.46 1.2213    41.7     0    2      0.0   10 
18/06/19  8:20a    ---    ---    ---    99    ---   0.0   ---   0.00   0.0   ---    ---    ---    ---  1019.4  0.00   0.0     ---     ---   15.3    49    4.6   14.1   9.35 1.2216    41.7     0    2      0.0   10 
18/06/19  8:30a    5.1    5.1    5.0    98    4.8   0.0   ---   0.00   0.0   ---    5.1    5.2    5.2  1019.2  0.00   0.0   0.092   0.000   15.2    49    4.6   14.1   9.35 1.2216    41.7     0    2      0.0   10 
18/06/19  8:40a    5.3    5.3    5.1    99    5.2   0.0   ---   0.00   0.0   ---    5.3    5.4    5.4  1019.2  0.00   0.0   0.090   0.000   15.1    48    4.1   13.9   9.15 1.2226    41.7     0    2      0.0   10 
18/06/19  8:50a    5.7    5.7    5.3    99    5.6   0.0   ---   0.00   0.0   ---    5.7    5.8    5.8  1019.3  0.00   0.0   0.088   0.000   14.9    48    4.0   13.8   9.15 1.2233    41.7     0    2      0.0   10 
18/06/19  9:00a    5.9    5.9    5.7    99    5.8   0.0   ---   0.00   0.0   ---    5.9    6.1    6.1  1019.0  0.00   0.0   0.086   0.000   14.9    48    4.0   13.7   9.15 1.2233    41.7     0    2      0.0   10 
18/06/19  9:10a    6.1    6.1    5.9    99    6.0   0.0   ---   0.00   0.0   ---    6.1    6.3    6.3  1019.0  0.00   0.0   0.085   0.000   14.8    48    3.9   13.6   9.15 1.2238    41.7     0    2      0.0   10 
18/06/19  9:20a    6.3    6.3    6.2    99    6.1   0.0   ---   0.00   0.0   ---    6.3    6.4    6.4  1019.3  0.00   0.0   0.084   0.000   15.3    48    4.3   14.1   9.15 1.2217    41.7     0    2      0.0   10 
18/06/19  9:30a    6.4    6.4    6.3    99    6.3   0.0   ---   0.00   0.0   ---    6.4    6.6    6.6  1019.5  0.00   0.0   0.083   0.000   16.8    47    5.4   15.7   8.90 1.2146    41.7    44    2     19.8   10 
18/06/19  9:40a    6.8    6.8    6.5   100    6.8   0.0   ---   0.00   0.0   ---    6.8    7.0    7.0  1019.5  0.00   0.0   0.080   0.000   18.3    45    6.1   17.1   8.55 1.2081    41.7    32    2     14.4   10 
18/06/19  9:50a    6.9    6.9    6.8   100    6.9   0.0   ---   0.00   0.0   ---    6.9    7.1    7.1  1019.6  0.00   0.0   0.079   0.000   19.3    43    6.4   18.1   8.25 1.2038    41.7     6    2      2.7   10 
18/06/19 10:00a    7.1    7.1    6.9   100    7.1   0.0   ---   0.00   0.0   ---    7.1    7.3    7.3  1019.3  0.00   0.0   0.078   0.000   19.8    42    6.5   18.6   8.10 1.2013    41.7     8    2      3.6   10 
18/06/19 10:10a    7.5    7.5    7.3   100    7.5   0.0   ---   0.00   0.0   ---    7.5    7.7    7.7  1019.3  0.00   0.0   0.075   0.000   20.1    41    6.4   18.8   7.95 1.2003    41.7    46    2     20.7   10 
18/06/19 10:20a    7.7    7.7    7.5   100    7.7   0.0   ---   0.00   0.0   ---    7.7    7.9    7.9  1019.3  0.00   0.0   0.074   0.000   20.6    40    6.5   19.2   7.77 1.1982    41.7    23    2     10.4   10 
18/06/19 10:30a    7.8    7.8    7.7   100    7.8   0.0   ---   0.00   0.0   ---    7.8    8.1    8.1  1019.3  0.00   0.0   0.073   0.000   20.9    39    6.5   19.4   7.66 1.1966    41.7     8    2      3.6   10 
18/06/19 10:40a    8.3    8.3    7.9   100    8.3   0.0   ---   0.00   0.0   ---    8.3    8.6    8.6  1019.3  0.00   0.0   0.070   0.000   21.2    38    6.3   19.7   7.54 1.1955    41.7    20    2      9.0   10 
18/06/19 10:50a    8.4    8.6    8.3   100    8.4   0.0   ---   0.00   0.0   ---    8.4    8.7    8.7  1019.0  0.00   0.0   0.069   0.000   21.4    38    6.5   19.9   7.53 1.1944    41.7    17    2      7.7   10 
18/06/19 11:00a    8.4    8.4    8.4   100    8.4   0.0   ---   0.00   0.0   ---    8.4    8.7    8.7  1018.7  0.00   0.0   0.069   0.000   21.7    37    6.3   20.2   7.33 1.1930    41.7    16    2      7.2   10 
18/06/19 11:10a    8.6    8.6    8.4   100    8.6   0.0   ---   0.00   0.0   ---    8.6    8.8    8.8  1018.7  0.00   0.0   0.068   0.000   21.8    37    6.4   20.3   7.33 1.1925    41.7    23    2     10.4   10 
18/06/19 11:20a    8.4    8.6    8.4   100    8.4   0.0   ---   0.00   0.0   ---    8.4    8.7    8.7  1018.5  0.00   0.0   0.069   0.000   21.8    36    6.1   20.4   7.20 1.1924    41.7    15    2      6.8   10 
18/06/19 11:30a    8.6    8.6    8.6   100    8.6   0.0   ---   0.00   0.0   ---    8.6    8.8    8.8  1018.4  0.00   0.0   0.068   0.000   21.9    36    6.2   20.6   7.19 1.1916    41.7     9    2      4.1   10 
18/06/19 11:40a    8.8    8.8    8.6   100    8.8   0.0   ---   0.00   0.0   ---    8.8    9.1    9.1  1018.4  0.00   0.0   0.066   0.000   22.2    36    6.4   20.9   7.17 1.1906    41.7     5    2      2.3   10 
18/06/19 11:50a    8.9    8.9    8.8   100    8.9   0.0   ---   0.00   0.0   ---    8.9    9.3    9.3  1018.1  0.00   0.0   0.065   0.000   22.2    36    6.4   20.9   7.17 1.1902    41.7    13    2      5.9   10 
18/06/19 12:00p    9.3    9.3    9.2   100    9.3   0.0   ---   0.00   0.0   ---    9.3    9.6    9.6  1017.6  0.00   0.0   0.063   0.000   22.1    36    6.3   20.7   7.18 1.1903    41.7    12    2      5.4   10 
18/06/19 12:10p    9.6    9.6    9.2   100    9.6   0.0   ---   0.00   0.0   ---    9.6    9.9    9.9  1017.6  0.00   0.0   0.061   0.000   22.2    36    6.4   20.9   7.17 1.1898    41.7    15    2      6.8   10 
18/06/19 12:20p   10.0   10.0    9.6   100   10.0   0.0   ---   0.00   0.0   ---   10.0   10.4   10.4  1017.4  0.00   0.0   0.058   0.000   22.2    37    6.8   21.0   7.31 1.1889    41.7    21    2      9.5   10 
18/06/19 12:30p   10.2   10.2   10.1   100   10.2   0.0   ---   0.00   0.0   ---   10.2   10.6   10.6  1017.0  0.00   0.0   0.057   0.000   22.2    37    6.8   21.0   7.31 1.1885    41.7     9    2      4.1   10 
18/06/19 12:40p   10.6   10.6   10.5    91    9.2   0.0   ---   0.00   3.2     S   10.6   10.7   10.7  1017.0  0.00   0.0   0.054   0.000   22.3    37    6.9   21.2   7.31 1.1879    41.7    23    2     10.4   10 
18/06/19 12:50p   10.8   10.8   10.8    88    8.9   0.0   ---   0.00   0.0   ---   10.8   10.8   10.8  1016.6  0.00   0.0   0.052   0.000   22.6    36    6.8   21.6   7.14 1.1864    41.7    29    2     13.1   10 
18/06/19  1:00p   11.0   11.0   10.9    84    8.4   0.0   ---   0.00   0.0   ---   11.0   11.0   11.0  1016.6  0.00   0.0   0.051   0.000   22.9    37    7.4   22.1   7.29 1.1847    41.7    28    2     12.6   10 
18/06/19  1:10p   11.2   11.2   11.0    82    8.2   0.0   ---   0.00   0.0   ---   11.2   11.1   11.1  1016.6  0.00   0.0   0.050   0.000   23.1    36    7.2   22.3   7.11 1.1840    41.7    33    2     14.9   10 
18/06/19  1:20p   11.3   11.3   11.2    81    8.2   0.0   ---   0.00   0.0   ---   11.3   11.2   11.2  1016.7  0.00   0.0   0.049   0.000   23.2    36    7.3   22.4   7.10 1.1839    41.7    48    2     21.6   10 
18/06/19  1:30p   11.3   11.3   11.2    81    8.1   0.0     N   0.00   1.6     N   11.3   11.2   11.2  1016.5  0.00   0.0   0.049   0.000   23.3    36    7.4   22.6   7.09 1.1832    41.7    47    2     21.2   10 
18/06/19  1:40p   11.7   11.7   11.4    81    8.5   0.0   ---   0.00   0.0   ---   11.7   11.5   11.5  1016.5  0.00   0.0   0.046   0.000   23.5    36    7.6   22.8   7.08 1.1821    41.7    33    2     14.9   10 
18/06/19  1:50p   12.1   12.1   11.8    70    6.7   0.0     N   0.00   1.6     N   12.1   11.7   11.7  1016.2  0.00   0.0   0.044   0.000   23.6    35    7.2   22.8   6.96 1.1818    41.7    48    2     21.6   10 
18/06/19  2:00p   12.2   12.2   12.1    70    6.9   0.0   ---   0.00   0.0   ---   12.2   11.8   11.8  1016.1  0.00   0.0   0.043   0.000   23.7    35    7.3   23.0   6.96 1.1811    41.7     5    2      2.3   10 
18/06/19  2:10p   12.0   12.2   12.0    68    6.3   0.0   ---   0.00   0.0   ---   12.0   11.6   11.6  1016.1  0.00   0.0   0.044   0.000   23.4    35    7.1   22.7   6.97 1.1824    41.7    58    2     26.1   10 
18/06/19  2:20p   11.7   12.0   11.7    68    6.0   0.0   ---   0.00   0.0   ---   11.7   11.2   11.2  1016.2  0.00   0.0   0.046   0.000   23.3    35    7.0   22.6   6.97 1.1832    41.7    86    2     38.7   10 
18/06/19  2:30p   11.5   11.7   11.5    66    5.4   0.0   ---   0.00   0.0   ---   11.5   11.1   11.1  1016.3  0.00   0.0   0.047   0.000   23.2    35    6.9   22.3   6.98 1.1838    41.7   157    2     70.7   10 
18/06/19  2:40p   11.5   11.5   11.5    63    4.7   0.0   ---   0.00   0.0   ---   11.5   11.0   11.0  1016.3  0.00   0.0   0.047   0.000   22.9    35    6.6   21.9   6.99 1.1851    41.7   161    2     72.5   10 
18/06/19  2:50p   11.5   11.5   11.5    63    4.7   0.0   ---   0.00   0.0   ---   11.5   11.0   11.0  1016.3  0.00   0.0   0.047   0.000   22.7    35    6.5   21.7   6.99 1.1859    41.7   166    2     74.8   10 
18/06/19  3:00p   11.5   11.5   11.5    64    4.9   0.0   ---   0.00   0.0   ---   11.5   11.0   11.0  1016.3  0.00   0.0   0.047   0.000   22.7    36    6.9   21.7   7.13 1.1855    41.7   113    2     50.9   10 
18/06/19  3:10p   11.6   11.6   11.6    62    4.6   0.0   ---   0.00   0.0   ---   11.6   11.1   11.1  1016.3  0.00   0.0   0.047   0.000   22.7    36    6.9   21.7   7.13 1.1855    41.7    21    2      9.5   10 
18/06/19  3:20p   11.4   11.5   11.4    62    4.4   0.0   ---   0.00   0.0   ---   11.4   10.9   10.9  1016.3  0.00   0.0   0.048   0.000   22.8    36    7.0   21.9   7.13 1.1850    41.7    14    2      6.3   10 
18/06/19  3:30p   11.3   11.4   11.3    59    3.6   0.0   ---   0.00   0.0   ---   11.3   10.7   10.7  1016.4  0.00   0.0   0.049   0.000   23.0    33    5.9   22.0   6.58 1.1854    41.7    15    2      6.8   10 
18/06/19  3:40p   11.3   11.3   11.3    59    3.5   0.0   ---   0.00   0.0   ---   11.3   10.7   10.7  1016.4  0.00   0.0   0.049   0.000   23.2    36    7.3   22.4   7.10 1.1836    41.7    20    2      9.0   10 
18/06/19  3:50p   11.1   11.3   11.1    58    3.2   0.0   ---   0.00   0.0   ---   11.1   10.5   10.5  1016.5  0.00   0.0   0.050   0.000   23.3    35    7.0   22.6   6.97 1.1835    41.7   105    2     47.3   10 
18/06/19  4:00p   10.6   11.1   10.6    58    2.7   0.0   ---   0.00   0.0   ---   10.6   10.1   10.1  1016.5  0.00   0.0   0.054   0.000   23.3    35    7.0   22.6   6.97 1.1835    41.7   175    2     78.8   10 
18/06/19  4:10p   10.2   10.6   10.2    60    2.7   0.0   ---   0.00   0.0   ---   10.2    9.7    9.7  1016.5  0.00   0.0   0.057   0.000   23.4    33    6.2   22.6   6.57 1.1837    41.7    24    2     10.8   10 
18/06/19  4:20p    9.7   10.0    9.7    60    2.3   0.0   ---   0.00   0.0   ---    9.7    9.3    9.3  1016.7  0.00   0.0   0.060   0.000   23.4    33    6.2   22.6   6.57 1.1839    41.7     2    2      0.9   10 
18/06/19  4:30p    9.2    9.6    9.2    64    2.8   0.0   ---   0.00   0.0   ---    9.2    8.8    8.8  1016.8  0.00   0.0   0.063   0.000   23.2    33    6.0   22.3   6.58 1.1851    41.7    53    2     23.9   10 
18/06/19  4:40p    8.9    9.1    8.9    65    2.7   0.0   ---   0.00   0.0   ---    8.9    8.5    8.5  1016.8  0.00   0.0   0.066   0.000   22.8    33    5.7   21.8   6.59 1.1866    41.7    64    2     28.8   10 
18/06/19  4:50p    8.6    8.9    8.6    66    2.6   0.0   ---   0.00   0.0   ---    8.6    8.2    8.2  1017.1  0.00   0.0   0.068   0.000   22.5    33    5.4   21.2   6.60 1.1885    41.7    40    2     18.0   10 
18/06/19  5:00p    8.4    8.6    8.4    67    2.6   0.0   ---   0.00   0.0   ---    8.4    8.1    8.1  1017.2  0.00   0.0   0.069   0.000   22.5    34    5.8   21.3   6.80 1.1883    41.7    72    2     32.4   10 
18/06/19  5:10p    8.1    8.4    8.1    67    2.3   0.0   ---   0.00   0.0   ---    8.1    7.8    7.8  1017.2  0.00   0.0   0.071   0.000   22.5    34    5.8   21.3   6.80 1.1883    41.7    72    2     32.4   10 
18/06/19  5:20p    7.9    8.1    7.9    68    2.3   0.0   ---   0.00   0.0   ---    7.9    7.6    7.6  1017.5  0.00   0.0   0.073   0.000   22.6    33    5.5   21.4   6.60 1.1885    41.7    60    2     27.0   10 
18/06/19  5:30p    7.4    7.7    7.4    69    2.1   0.0   ---   0.00   0.0   ---    7.4    7.1    7.1  1017.8  0.00   0.0   0.076   0.000   22.8    34    6.1   21.8   6.79 1.1875    41.7    33    2     14.9   10 
18/06/19  5:40p    7.2    7.3    7.2    70    2.1   0.0   ---   0.00   0.0   ---    7.2    6.9    6.9  1017.8  0.00   0.0   0.078   0.000   22.8    33    5.7   21.8   6.59 1.1878    41.7    38    2     17.1   10 
18/06/19  5:50p    6.8    7.1    6.8    71    1.9   0.0   ---   0.00   0.0   ---    6.8    6.6    6.6  1018.0  0.00   0.0   0.080   0.000   22.8    34    6.1   21.8   6.79 1.1877    41.7    67    2     30.2   10 
18/06/19  6:00p    6.7    6.8    6.7    73    2.2   0.0   ---   0.00   0.0   ---    6.7    6.4    6.4  1018.2  0.00   0.0   0.081   0.000   22.7    33    5.6   21.6   6.59 1.1887    41.7    66    2     29.7   10 
18/06/19  6:10p    6.5    6.6    6.5    75    2.4   0.0   ---   0.00   0.0   ---    6.5    6.3    6.3  1018.2  0.00   0.0   0.082   0.000   22.2    33    5.2   20.8   6.61 1.1911    41.7   124    2     55.9   10 
18/06/19  6:20p    6.5    6.5    6.5    76    2.6   0.0   ---   0.00   0.0   ---    6.5    6.3    6.3  1018.4  0.00   0.0   0.082   0.000   21.8    34    5.2   20.2   6.83 1.1931    41.7   116    2     52.3   10 
18/06/19  6:30p    6.7    6.7    6.5    77    2.9   0.0   ---   0.00   0.0   ---    6.7    6.5    6.5  1018.3  0.00   0.0   0.081   0.000   21.3    34    4.8   19.6   6.84 1.1953    41.7    68    2     30.6   10 
18/06/19  6:40p    6.6    6.7    6.6    77    2.9   0.0   ---   0.00   0.0   ---    6.6    6.4    6.4  1018.3  0.00   0.0   0.081   0.000   20.8    35    4.8   19.1   7.05 1.1971    41.7   135    2     60.8   10 
18/06/19  6:50p    6.6    6.6    6.6    77    2.9   0.0   ---   0.00   0.0   ---    6.6    6.4    6.4  1018.3  0.00   0.0   0.081   0.000   20.6    36    5.0   19.0   7.23 1.1978    41.7    34    2     15.3   10 
18/06/19  7:00p    6.5    6.6    6.5    77    2.8   0.0   ---   0.00   0.0   ---    6.5    6.3    6.3  1018.4  0.00   0.0   0.082   0.000   20.4    36    4.9   18.8   7.23 1.1988    41.7    21    2      9.5   10 
18/06/19  7:10p    6.5    6.5    6.5    78    2.9   0.0   ---   0.00   0.0   ---    6.5    6.3    6.3  1018.4  0.00   0.0   0.082   0.000   20.2    36    4.6   18.6   7.22 1.2001    41.7   104    2     46.8   10 
18/06/19  7:20p    6.5    6.5    6.5    78    2.9   0.0   ---   0.00   0.0   ---    6.5    6.3    6.3  1018.5  0.00   0.0   0.082   0.000   19.9    37    4.8   18.3   7.35 1.2012    41.7   164    2     73.9   10 
18/06/19  7:30p    6.7    6.7    6.5    79    3.3   0.0   ---   0.00   0.0   ---    6.7    6.6    6.6  1018.4  0.00   0.0   0.081   0.000   19.6    38    4.9   18.1   7.55 1.2021    41.7   176    2     79.3   10 
18/06/19  7:40p    6.8    6.8    6.7    79    3.4   0.0   ---   0.00   0.0   ---    6.8    6.7    6.7  1018.4  0.00   0.0   0.080   0.000   19.4    38    4.7   17.9   7.55 1.2029    41.7   156    2     70.3   10 
18/06/19  7:50p    6.8    6.8    6.8    79    3.4   0.0   ---   0.00   0.0   ---    6.8    6.7    6.7  1018.5  0.00   0.0   0.080   0.000   19.3    38    4.6   17.8   7.55 1.2035    41.7   174    2     78.4   10 
18/06/19  8:00p    6.7    6.8    6.7    80    3.5   0.0   ---   0.00   0.0   ---    6.7    6.6    6.6  1018.5  0.00   0.0   0.081   0.000   19.3    39    5.0   17.8   7.72 1.2035    41.7   176    2     79.3   10 
18/06/19  8:10p    6.8    6.8    6.7    81    3.8   0.0   ---   0.00   0.0   ---    6.8    6.7    6.7  1018.5  0.00   0.0   0.080   0.000   19.2    39    4.9   17.7   7.72 1.2041    41.7   162    2     73.0   10 
18/06/19  8:20p    7.0    7.0    6.8    82    4.1   0.0   ---   0.00   0.0   ---    7.0    6.9    6.9  1018.2  0.00   0.0   0.079   0.000   19.0    39    4.7   17.5   7.73 1.2045    41.7   158    2     71.2   10 
18/06/19  8:30p    7.2    7.2    7.0    82    4.3   0.0   ---   0.00   0.0   ---    7.2    7.1    7.1  1017.9  0.00   0.0   0.078   0.000   18.9    40    5.0   17.4   7.83 1.2044    41.7   117    2     52.7   10 
18/06/19  8:40p    7.2    7.2    7.2    83    4.5   0.0   ---   0.00   0.0   ---    7.2    7.2    7.2  1017.9  0.00   0.0   0.077   0.000   18.8    40    4.9   17.4   7.83 1.2047    41.7    72    2     32.4   10 
18/06/19  8:50p    7.2    7.3    7.2    83    4.5   0.0   ---   0.00   0.0   ---    7.2    7.2    7.2  1017.9  0.00   0.0   0.077   0.000   18.8    40    4.9   17.4   7.83 1.2047    41.7   177    2     79.7   10 
18/06/19  9:00p    7.1    7.2    7.1    83    4.4   0.0   ---   0.00   0.0   ---    7.1    7.0    7.0  1017.9  0.00   0.0   0.078   0.000   18.7    41    5.2   17.3   7.95 1.2049    41.7   165    2     74.3   10 
18/06/19  9:10p    7.0    7.1    7.0    84    4.5   0.0   ---   0.00   0.0   ---    7.0    6.9    6.9  1017.9  0.00   0.0   0.079   0.000   18.6    41    5.1   17.2   7.95 1.2055    41.7   173    2     77.9   10 
18/06/19  9:20p    6.9    6.9    6.9    85    4.5   0.0   ---   0.00   0.0   ---    6.9    6.8    6.8  1017.8  0.00   0.0   0.079   0.000   18.6    41    5.0   17.2   7.95 1.2057    41.7   175    2     78.8   10 
18/06/19  9:30p    7.1    7.1    6.9    86    4.9   0.0   ---   0.00   0.0   ---    7.1    7.0    7.0  1017.8  0.00   0.0   0.078   0.000   18.4    41    4.9   17.1   7.95 1.2062    41.7   182    2     82.0   10 
18/06/19  9:40p    7.2    7.2    7.1    87    5.2   0.0   ---   0.00   0.0   ---    7.2    7.2    7.2  1017.8  0.25   0.0   0.077   0.000   18.4    41    4.9   17.1   7.95 1.2062    41.7    96    2     43.2   10 
18/06/19  9:50p    7.3    7.3    7.2    88    5.5   0.0   ---   0.00   0.0   ---    7.3    7.3    7.3  1017.8  0.00   0.0   0.076   0.000   18.3    42    5.2   17.0   8.15 1.2065    41.7    18    2      8.1   10 
18/06/19 10:00p    7.2    7.3    7.2    88    5.3   1.6     N   0.27   4.8     N    7.2    7.2    7.2  1017.8  0.00   0.0   0.078   0.000   18.3    42    5.2   17.0   8.15 1.2065    41.7    22    2      9.9   10 
18/06/19 10:10p    7.0    7.2    7.0    88    5.1   0.0   ---   0.00   0.0   ---    7.0    7.0    7.0  1017.8  0.00   0.0   0.079   0.000   18.3    42    5.2   17.0   8.15 1.2065    41.7     0    2      0.0   10 
18/06/19 10:20p    6.8    6.9    6.8    88    4.9   0.0   ---   0.00   0.0   ---    6.8    6.8    6.8  1017.7  0.00   0.0   0.080   0.000   18.3    42    5.1   16.9   8.15 1.2066    41.7     0    2      0.0   10 
18/06/19 10:30p    6.3    6.6    6.3    88    4.5   0.0   ---   0.00   0.0   ---    6.3    6.3    6.3  1017.7  0.00   0.0   0.083   0.000   18.2    42    5.0   16.8   8.15 1.2072    41.7     0    2      0.0   10 
18/06/19 10:40p    6.1    6.3    6.1    89    4.4   0.0   ---   0.00   0.0   ---    6.1    6.1    6.1  1017.7  0.00   0.0   0.085   0.000   18.0    41    4.5   16.6   7.96 1.2082    41.7     0    2      0.0   10 
18/06/19 10:50p    5.8    6.1    5.8    89    4.1   0.0   ---   0.00   0.0   ---    5.8    5.8    5.8  1017.8  0.00   0.0   0.087   0.000   17.8    41    4.4   16.4   7.97 1.2092    41.7     0    2      0.0   10 
18/06/19 11:00p    5.7    5.8    5.7    89    4.0   0.0   ---   0.00   0.0   ---    5.7    5.7    5.7  1018.0  0.00   0.0   0.088   0.000   17.6    41    4.1   16.1   7.98 1.2107    41.7     0    2      0.0   10 
18/06/19 11:10p    5.7    5.7    5.6    90    4.2   0.0   ---   0.00   0.0   ---    5.7    5.7    5.7  1018.0  0.00   0.0   0.088   0.000   17.4    41    4.0   15.9   7.98 1.2115    41.7     0    2      0.0   10 
18/06/19 11:20p    5.7    5.7    5.7    90    4.2   0.0   ---   0.00   0.0   ---    5.7    5.7    5.7  1018.0  0.00   0.0   0.088   0.000   17.2    41    3.8   15.8   7.99 1.2122    41.7     0    2      0.0   10 
18/06/19 11:30p    5.6    5.7    5.6    90    4.0   0.0   ---   0.00   0.0   ---    5.6    5.6    5.6  1018.0  0.00   0.0   0.089   0.000   17.0    42    4.0   15.6   8.15 1.2131    41.7     0    2      0.0   10 
18/06/19 11:40p    5.6    5.6    5.6    90    4.0   0.0   ---   0.00   0.0   ---    5.6    5.6    5.6  1018.0  0.00   0.0   0.089   0.000   16.8    42    3.8   15.4   8.15 1.2139    41.7     0    2      0.0   10 
18/06/19 11:50p    5.6    5.6    5.6    89    3.9   0.0   ---   0.00   0.0   ---    5.6    5.6    5.6  1017.9  0.00   0.0   0.089   0.000   16.7    42    3.7   15.3   8.15 1.2145    41.7     0    2      0.0   10 
19/06/19 12:00a    5.7    5.7    5.6    89    4.0   0.0   ---   0.00   0.0   ---    5.7    5.7    5.7  1017.8  0.00   0.0   0.088   0.000   16.6    42    3.6   15.2   8.15 1.2148    41.7     0    2      0.0   10 
19/06/19 12:10a    5.6    5.7    5.6    88    3.7   0.0   ---   0.00   0.0   ---    5.6    5.5    5.5  1017.8  0.00   0.0   0.089   0.000   16.4    42    3.4   15.0   8.15 1.2158    41.7     0    2      0.0   10 
19/06/19 12:20a    5.3    5.5    5.3    88    3.5   0.0   ---   0.00   0.0   ---    5.3    5.3    5.3  1017.5  0.00   0.0   0.090   0.000   16.2    42    3.3   14.8   8.15 1.2163    41.7     0    2      0.0   10 
19/06/19 12:30a    5.0    5.3    5.0    88    3.2   0.0   ---   0.00   0.0   ---    5.0    4.9    4.9  1017.6  0.00   0.0   0.093   0.000   16.2    42    3.2   14.8   8.15 1.2167    41.7     0    2      0.0   10 
19/06/19 12:40a    4.8    5.0    4.8    88    3.0   0.0   ---   0.00   0.0   ---    4.8    4.8    4.8  1017.6  0.00   0.0   0.094   0.000   16.0    42    3.1   14.6   8.15 1.2175    41.7     0    2      0.0   10 
19/06/19 12:50a    4.8    4.8    4.8    88    3.0   0.0   ---   0.00   0.0   ---    4.8    4.7    4.7  1017.7  0.00   0.0   0.094   0.000   15.9    42    3.0   14.5   8.15 1.2181    41.7     0    2      0.0   10 
19/06/19  1:00a    4.8    4.8    4.8    88    3.0   0.0   ---   0.00   0.0   ---    4.8    4.7    4.7  1017.6  0.00   0.0   0.094   0.000   15.8    43    3.2   14.4   8.34 1.2183    41.7     0    2      0.0   10 
19/06/19  1:10a    4.7    4.8    4.7    87    2.7   0.0   ---   0.00   0.0   ---    4.7    4.6    4.6  1017.6  0.00   0.0   0.095   0.000   15.6    43    3.1   14.2   8.35 1.2191    41.7     0    2      0.0   10 
19/06/19  1:20a    4.4    4.7    4.4    87    2.5   0.0   ---   0.00   0.0   ---    4.4    4.3    4.3  1017.3  0.00   0.0   0.096   0.000   15.6    43    3.0   14.2   8.35 1.2190    41.7     0    2      0.0   10 
19/06/19  1:30a    4.2    4.4    4.2    86    2.1   0.0   ---   0.00   0.0   ---    4.2    4.1    4.1  1017.5  0.00   0.0   0.098   0.000   15.4    43    2.9   14.1   8.35 1.2198    41.7     0    2      0.0   10 
19/06/19  1:40a    4.0    4.2    4.0    86    1.9   0.0   ---   0.00   0.0   ---    4.0    3.9    3.9  1017.5  0.00   0.0   0.100   0.000   15.4    43    2.9   14.0   8.34 1.2201    41.7     0    2      0.0   10 
19/06/19  1:50a    3.7    4.0    3.7    86    1.5   0.0   ---   0.00   0.0   ---    3.7    3.6    3.6  1017.7  0.00   0.0   0.102   0.000   15.3    43    2.8   13.9   8.34 1.2209    41.7     0    2      0.0   10 
19/06/19  2:00a    3.7    3.7    3.6    87    1.8   0.0   ---   0.00   0.0   ---    3.7    3.6    3.6  1017.8  0.00   0.0   0.101   0.000   15.2    43    2.7   13.8   8.34 1.2212    41.7     0    2      0.0   10 
19/06/19  2:10a    3.7    3.7    3.7    87    1.8   0.0   ---   0.00   0.0   ---    3.7    3.6    3.6  1017.8  0.00   0.0   0.101   0.000   15.1    43    2.6   13.7   8.33 1.2220    41.7     0    2      0.0   10 
19/06/19  2:20a    3.7    3.7    3.7    87    1.7   0.0   ---   0.00   0.0   ---    3.7    3.6    3.6  1017.8  0.00   0.0   0.102   0.000   14.9    43    2.4   13.5   8.33 1.2228    41.7     0    2      0.0   10 
19/06/19  2:30a    3.7    3.7    3.7    87    1.8   0.0   ---   0.00   0.0   ---    3.7    3.6    3.6  1017.8  0.00   0.0   0.101   0.000   14.8    43    2.3   13.4   8.32 1.2233    41.7     0    2      0.0   10 
19/06/19  2:40a    3.6    3.7    3.6    86    1.4   0.0   ---   0.00   0.0   ---    3.6    3.4    3.4  1017.8  0.00   0.0   0.103   0.000   14.8    43    2.3   13.4   8.32 1.2233    41.7     0    2      0.0   10 
19/06/19  2:50a    3.5    3.6    3.5    87    1.5   0.0   ---   0.00   0.0   ---    3.5    3.4    3.4  1017.9  0.00   0.0   0.103   0.000   14.7    43    2.3   13.4   8.32 1.2238    41.7     0    2      0.0   10 
19/06/19  3:00a    3.1    3.4    3.1    86    1.0   0.0   ---   0.00   0.0   ---    3.1    3.0    3.0  1018.4  0.00   0.0   0.106   0.000   14.6    43    2.2   13.3   8.32 1.2248    41.7     0    2      0.0   10 
19/06/19  3:10a    2.9    3.1    2.9    87    1.0   0.0   ---   0.00   0.0   ---    2.9    2.8    2.8  1018.4  0.00   0.0   0.107   0.000   14.4    43    2.0   13.1   8.31 1.2256    41.7     0    2      0.0   10 
19/06/19  3:20a    2.8    2.9    2.8    88    1.0   0.0   ---   0.00   0.0   ---    2.8    2.8    2.8  1018.5  0.00   0.0   0.108   0.000   14.3    43    1.9   13.0   8.31 1.2264    41.7     0    2      0.0   10 
19/06/19  3:30a    3.0    3.0    2.8    89    1.4   0.0   ---   0.00   0.0   ---    3.0    2.9    2.9  1018.5  0.00   0.0   0.106   0.000   14.3    43    1.9   12.9   8.30 1.2266    41.7     0    2      0.0   10 
19/06/19  3:40a    2.8    3.0    2.8    88    1.0   0.0   ---   0.00   0.0   ---    2.8    2.7    2.7  1018.5  0.00   0.0   0.108   0.000   14.2    44    2.1   12.9   8.50 1.2270    41.7     0    2      0.0   10 
19/06/19  3:50a    2.4    2.8    2.4    89    0.8   0.0   ---   0.00   0.0   ---    2.4    2.4    2.4  1018.5  0.00   0.0   0.110   0.000   14.2    43    1.8   12.8   8.30 1.2271    41.7     0    2      0.0   10 
19/06/19  4:00a    2.4    2.4    2.4    89    0.8   0.0   ---   0.00   0.0   ---    2.4    2.3    2.3  1018.6  0.00   0.0   0.111   0.000   14.0    43    1.6   12.7   8.29 1.2280    41.7     0    2      0.0   10 
19/06/19  4:10a    2.7    2.7    2.4    90    1.2   0.0   ---   0.00   0.0   ---    2.7    2.7    2.7  1018.6  0.00   0.0   0.108   0.000   13.9    44    1.9   12.7   8.49 1.2281    41.7     0    2      0.0   10 
19/06/19  4:20a    2.7    2.8    2.7    90    1.2   0.0   ---   0.00   0.0   ---    2.7    2.7    2.7  1018.6  0.00   0.0   0.108   0.000   13.8    44    1.8   12.6   8.49 1.2287    41.7     0    2      0.0   10 
19/06/19  4:30a    2.6    2.7    2.6    90    1.1   0.0   ---   0.00   0.0   ---    2.6    2.6    2.6  1018.6  0.00   0.0   0.109   0.000   13.8    44    1.8   12.6   8.49 1.2287    41.7     0    2      0.0   10